Time;durP1;ratioP1;P1;durP2;ratioP2;P2;SDS_P1;SDS_P2;PMS_P1;PMS_P2;Temp;Humidity;BMP_temperature;BMP_pressure;BME280_temperature;BME280_humidity;BME280_pressure;Samples;Min_cycle;Max_cycle;Signal;HPM_P1;HPM_P2
2022/10/31 00:02:04;;;;;;;23.35;17.83;;;;;;;13.11;100.00;101977.97;5008756;28;20412;-67
2022/10/31 00:04:29;;;;;;;25.77;18.40;;;;;;;13.01;100.00;101976.75;5008693;28;20032;-68
2022/10/31 00:06:54;;;;;;;23.33;17.77;;;;;;;12.96;100.00;101986.53;5006248;28;20099;-68
2022/10/31 00:09:19;;;;;;;23.90;17.50;;;;;;;12.89;100.00;101985.72;5008078;28;20036;-67
2022/10/31 00:11:45;;;;;;;28.23;19.20;;;;;;;12.84;100.00;101982.75;5009173;28;20053;-67
2022/10/31 00:14:10;;;;;;;23.63;15.93;;;;;;;12.69;100.00;101988.53;5008151;28;20125;-67
2022/10/31 00:16:35;;;;;;;21.92;15.88;;;;;;;12.58;100.00;101989.22;5006938;28;20030;-67
2022/10/31 00:19:03;;;;;;;23.45;15.35;;;;;;;12.51;100.00;101993.03;5007768;28;20435;-67
2022/10/31 00:21:30;;;;;;;;;;;;;;;12.63;100.00;101988.56;5009494;28;20152;-68
2022/10/31 00:23:56;;;;;;;22.50;15.80;;;;;;;12.44;100.00;101991.16;5006694;28;19921;-67
2022/10/31 00:26:22;;;;;;;24.52;16.58;;;;;;;12.39;100.00;101987.34;5008500;28;20088;-68
2022/10/31 00:28:47;;;;;;;24.27;16.65;;;;;;;12.37;100.00;101993.09;5009011;28;20034;-67
2022/10/31 00:31:14;;;;;;;26.88;17.52;;;;;;;12.34;100.00;101993.50;5006508;28;20033;-67
2022/10/31 00:33:40;;;;;;;25.92;17.73;;;;;;;12.27;100.00;101989.91;5007923;28;20038;-68
2022/10/31 00:36:06;;;;;;;21.38;16.80;;;;;;;12.28;100.00;101993.53;5007384;28;20095;-66
2022/10/31 00:38:32;;;;;;;30.50;17.70;;;;;;;12.23;100.00;101991.41;5006881;28;20065;-67
2022/10/31 00:40:57;;;;;;;22.85;16.33;;;;;;;12.22;100.00;101978.69;5007739;28;20052;-67
2022/10/31 00:43:23;;;;;;;24.13;16.20;;;;;;;12.16;100.00;101988.63;5008441;28;20045;-67
2022/10/31 00:45:49;;;;;;;21.30;14.80;;;;;;;12.09;100.00;101982.28;5007858;28;20033;-67
2022/10/31 00:48:15;;;;;;;24.10;16.40;;;;;;;12.06;100.00;101976.34;5007509;28;20170;-68
2022/10/31 00:50:41;;;;;;;21.10;14.88;;;;;;;11.99;100.00;101972.78;5008173;28;20103;-68
2022/10/31 00:53:07;;;;;;;18.63;14.88;;;;;;;11.86;100.00;101968.09;5006125;28;20029;-67
2022/10/31 00:55:33;;;;;;;22.05;15.32;;;;;;;11.81;100.00;101973.38;5008278;28;20372;-68
2022/10/31 00:57:58;;;;;;;21.77;15.18;;;;;;;11.85;100.00;101977.44;5007989;28;20041;-68
2022/10/31 01:00:23;;;;;;;19.30;15.27;;;;;;;11.85;100.00;101978.28;5008241;28;20499;-67
2022/10/31 01:02:49;;;;;;;21.98;15.77;;;;;;;11.82;100.00;101978.72;5006331;28;20021;-66
2022/10/31 01:05:14;;;;;;;21.65;15.57;;;;;;;11.82;100.00;101986.97;5006324;28;20457;-68
2022/10/31 01:07:40;;;;;;;20.00;14.55;;;;;;;11.78;100.00;101982.91;5007091;28;20045;-68
2022/10/31 01:10:06;;;;;;;24.48;16.15;;;;;;;11.76;100.00;101989.66;5005782;28;20713;-67
2022/10/31 01:12:43;;;;;;;22.27;14.88;;;;;;;11.79;100.00;101984.59;5006636;28;20042;-67
2022/10/31 01:15:10;;;;;;;22.95;16.67;;;;;;;11.73;100.00;101973.59;5007395;28;20412;-68
2022/10/31 01:17:36;;;;;;;22.00;16.52;;;;;;;11.68;100.00;101964.06;5005497;28;20445;-68
2022/10/31 01:20:02;;;;;;;21.88;15.60;;;;;;;11.64;100.00;101967.44;5005575;28;20184;-67
2022/10/31 01:22:27;;;;;;;21.33;15.23;;;;;;;11.59;100.00;101964.47;5005858;28;20080;-67
2022/10/31 01:24:52;;;;;;;20.80;15.50;;;;;;;11.58;100.00;101951.78;5006688;28;20025;-66
2022/10/31 01:27:18;;;;;;;22.73;16.02;;;;;;;11.54;100.00;101945.00;5008156;28;20673;-67
2022/10/31 01:29:43;;;;;;;22.33;16.88;;;;;;;11.51;100.00;101946.28;5008118;28;20032;-67
2022/10/31 01:32:08;;;;;;;25.77;17.88;;;;;;;11.54;100.00;101958.75;5003688;28;20040;-66
2022/10/31 01:34:33;;;;;;;24.52;17.88;;;;;;;11.57;100.00;101963.84;5007203;28;20036;-68
2022/10/31 01:36:59;;;;;;;26.33;16.70;;;;;;;11.58;100.00;101960.88;5006416;28;20033;-68
2022/10/31 01:39:24;;;;;;;23.90;18.67;;;;;;;11.60;100.00;101958.75;5006123;28;20048;-66
2022/10/31 01:41:52;;;;;;;24.60;17.40;;;;;;;11.59;100.00;101967.22;5006247;28;20387;-66
2022/10/31 01:44:17;;;;;;;24.83;16.85;;;;;;;11.58;100.00;101966.38;5007260;28;20387;-68
2022/10/31 01:46:51;;;;;;;24.13;17.70;;;;;;;11.57;100.00;101969.34;5005857;28;20113;-67
2022/10/31 01:49:23;;;;;;;27.33;17.48;;;;;;;11.53;100.00;101960.66;5007720;28;20488;-67
2022/10/31 01:51:55;;;;;;;28.02;19.27;;;;;;;11.56;100.00;101968.50;5007633;28;20033;-67
2022/10/31 01:54:23;;;;;;;25.17;17.90;;;;;;;11.56;100.00;101970.41;5005759;28;20033;-68
2022/10/31 01:56:52;;;;;;;25.92;18.60;;;;;;;11.55;100.00;101972.28;5005772;28;20034;-68
2022/10/31 01:59:20;;;;;;;22.40;17.05;;;;;;;11.52;100.00;101958.13;5006096;28;20685;-67
2022/10/31 02:01:47;;;;;;;27.45;18.40;;;;;;;11.51;100.00;101964.69;5006829;28;20034;-67
2022/10/31 02:04:14;;;;;;;25.80;17.75;;;;;;;11.52;100.00;101966.38;5006524;28;20610;-67
2022/10/31 02:06:50;;;;;;;24.70;18.33;;;;;;;11.53;100.00;101968.06;5007530;28;20018;-68
2022/10/31 02:11:57;;;;;;;19.95;13.77;;;;;;;11.24;100.00;101969.28;5021367;28;20042;-65
2022/10/31 02:14:25;;;;;;;18.23;14.55;;;;;;;11.11;100.00;101962.69;5025684;28;20037;-64
2022/10/31 02:16:50;;;;;;;19.77;14.32;;;;;;;11.05;100.00;101954.41;5024477;28;20026;-64
2022/10/31 02:19:27;;;;;;;19.80;14.13;;;;;;;10.95;100.00;101949.34;5025570;28;20380;-64
2022/10/31 02:22:02;;;;;;;19.75;14.00;;;;;;;10.90;100.00;101947.19;5025333;28;20041;-64
2022/10/31 02:24:52;;;;;;;19.13;14.90;;;;;;;10.91;100.00;101948.88;5025878;28;20488;-64
2022/10/31 02:27:58;;;;;;;24.67;16.90;;;;;;;10.90;100.00;101944.44;5026027;28;20029;-64
2022/10/31 02:30:32;;;;;;;21.40;15.23;;;;;;;10.85;100.00;101955.22;5029350;28;20472;-64
2022/10/31 02:33:06;;;;;;;26.02;16.90;;;;;;;10.90;100.00;101947.19;5027857;28;20030;-65
2022/10/31 02:35:55;;;;;;;21.70;15.75;;;;;;;10.84;100.00;101948.00;5029470;28;20400;-65
2022/10/31 02:38:30;;;;;;;23.75;16.83;;;;;;;10.88;100.00;101949.28;5029468;28;20048;-64
2022/10/31 02:41:10;;;;;;;24.13;16.60;;;;;;;10.87;100.00;101944.84;5022491;28;20392;-64
2022/10/31 02:43:53;;;;;;;23.15;14.40;;;;;;;10.84;100.00;101959.00;5021188;28;20038;-64
2022/10/31 02:46:38;;;;;;;22.38;14.52;;;;;;;10.72;100.00;101957.88;5010199;28;20045;-65
2022/10/31 02:49:24;;;;;;;22.23;14.88;;;;;;;10.72;100.00;101954.31;5019281;28;20029;-65
2022/10/31 02:51:50;;;;;;;20.05;13.68;;;;;;;10.62;100.00;101947.28;5030236;28;20087;-65
2022/10/31 02:54:19;;;;;;;17.30;12.77;;;;;;;10.58;100.00;101950.63;5029675;28;20550;-65
2022/10/31 02:56:44;;;;;;;20.52;15.25;;;;;;;10.56;100.00;101947.25;5030467;28;20029;-65
2022/10/31 02:59:10;;;;;;;23.15;15.52;;;;;;;10.56;100.00;101952.75;5029228;28;20037;-65
2022/10/31 03:01:44;;;;;;;20.85;15.10;;;;;;;10.56;100.00;101959.09;5029702;28;20021;-64
2022/10/31 03:04:47;;;;;;;21.38;15.13;;;;;;;10.58;100.00;101956.13;5026982;28;20040;-65
2022/10/31 03:07:38;;;;;;;18.13;13.82;;;;;;;10.54;100.00;101950.22;5014676;28;20641;-65
2022/10/31 03:10:27;;;;;;;19.73;15.15;;;;;;;10.58;100.00;101958.88;5029234;28;20418;-64
2022/10/31 03:13:11;;;;;;;19.80;15.18;;;;;;;10.60;100.00;101956.78;5028214;28;20121;-65
2022/10/31 03:15:44;;;;;;;21.13;14.68;;;;;;;10.57;100.00;101954.44;5029358;28;20361;-65
2022/10/31 03:18:16;;;;;;;19.63;13.10;;;;;;;10.51;100.00;101958.84;5026538;28;20092;-65
2022/10/31 03:20:52;;;;;;;17.75;12.85;;;;;;;10.49;100.00;101965.59;5029371;28;20407;-65
2022/10/31 03:23:20;;;;;;;18.55;13.07;;;;;;;10.46;100.00;101953.13;5029264;28;20497;-64
2022/10/31 03:25:46;;;;;;;17.33;12.10;;;;;;;10.38;100.00;101956.88;5030043;28;20029;-65
2022/10/31 03:28:15;;;;;;;18.27;12.07;;;;;;;10.32;100.00;101957.69;5029012;28;20041;-65
2022/10/31 03:30:44;;;;;;;17.20;11.98;;;;;;;10.29;100.00;101955.34;5028793;28;20508;-65
2022/10/31 03:33:14;;;;;;;19.52;13.50;;;;;;;10.28;100.00;101964.63;5029669;28;20034;-65
2022/10/31 03:35:44;;;;;;;17.63;12.45;;;;;;;10.30;100.00;101964.44;5029386;28;20567;-65
2022/10/31 03:38:10;;;;;;;19.05;12.88;;;;;;;10.27;100.00;101956.59;5028989;28;20422;-65
2022/10/31 03:40:38;;;;;;;18.42;13.07;;;;;;;10.26;100.00;101953.00;5027846;28;20383;-64
2022/10/31 03:43:13;;;;;;;16.80;12.40;;;;;;;10.25;100.00;101951.31;5028148;28;20449;-65
2022/10/31 03:45:43;;;;;;;18.58;13.25;;;;;;;10.22;100.00;101954.41;5019032;28;20057;-65
2022/10/31 03:48:09;;;;;;;18.08;12.95;;;;;;;10.19;100.00;101945.72;5009711;28;20052;-64
2022/10/31 03:50:50;;;;;;;17.75;12.02;;;;;;;10.16;100.00;101949.72;5009711;28;20168;-65
2022/10/31 03:53:33;;;;;;;15.68;12.48;;;;;;;10.13;100.00;101953.72;5009803;28;20156;-65
2022/10/31 03:56:17;;;;;;;17.95;13.07;;;;;;;10.14;100.00;101947.19;5028055;28;20129;-63
2022/10/31 03:58:48;;;;;;;18.67;13.75;;;;;;;10.07;100.00;101953.69;5028565;28;20460;-64
2022/10/31 04:01:17;;;;;;;17.00;12.85;;;;;;;10.02;100.00;101948.78;5027575;28;20043;-65
2022/10/31 04:03:44;;;;;;;19.45;13.05;;;;;;;10.00;100.00;101950.03;5028115;28;20037;-65
2022/10/31 04:06:14;;;;;;;18.80;12.40;;;;;;;9.97;100.00;101951.28;5028207;28;20053;-64
2022/10/31 04:08:45;;;;;;;13.15;9.02;;;;;;;9.94;100.00;101953.59;5027864;28;20025;-65
2022/10/31 04:11:13;;;;;;;11.43;9.20;;;;;;;9.88;100.00;101955.22;5024590;28;20108;-63
2022/10/31 04:13:41;;;;;;;12.27;9.48;;;;;;;9.80;100.00;101953.47;5015258;28;20093;-64
2022/10/31 04:16:08;;;;;;;12.65;8.40;;;;;;;9.78;100.00;101963.81;5024337;28;20483;-65
2022/10/31 04:18:33;;;;;;;11.57;8.63;;;;;;;9.72;100.00;101948.13;5027722;28;20711;-64
2022/10/31 04:21:05;;;;;;;14.13;9.20;;;;;;;9.73;100.00;101952.59;5026843;28;20021;-64
2022/10/31 04:23:31;;;;;;;17.95;11.80;;;;;;;9.70;100.00;101952.13;5019074;28;20033;-64
2022/10/31 04:25:56;;;;;;;15.27;12.07;;;;;;;9.70;100.00;101952.13;5028652;28;20698;-64
2022/10/31 04:28:21;;;;;;;17.38;12.48;;;;;;;9.72;100.00;101950.03;5028324;28;20037;-65
2022/10/31 04:30:47;;;;;;;19.65;13.63;;;;;;;9.70;100.00;101949.38;5018414;28;20113;-64
2022/10/31 04:33:12;;;;;;;15.43;12.73;;;;;;;9.71;100.00;101951.06;5008544;28;20057;-64
2022/10/31 04:35:37;;;;;;;20.20;13.27;;;;;;;9.72;100.00;101955.50;5008938;28;20819;-64
2022/10/31 04:38:03;;;;;;;16.15;12.00;;;;;;;9.72;100.00;101953.59;5023622;28;20068;-64
2022/10/31 04:40:28;;;;;;;20.77;11.40;;;;;;;9.75;100.00;101957.88;5028735;28;20021;-65
2022/10/31 04:42:53;;;;;;;16.60;12.70;;;;;;;9.78;100.00;101957.44;5028173;28;20053;-65
2022/10/31 04:45:18;;;;;;;18.23;12.50;;;;;;;9.79;100.00;101960.03;5028789;28;20522;-64
2022/10/31 04:47:44;;;;;;;20.83;13.50;;;;;;;9.80;100.00;101955.38;5027126;28;20053;-64
2022/10/31 04:50:09;;;;;;;18.55;12.98;;;;;;;9.81;100.00;101949.69;5028091;28;20490;-64
2022/10/31 04:52:45;;;;;;;19.40;12.85;;;;;;;9.82;100.00;101937.66;5027155;28;20111;-64
2022/10/31 04:55:12;;;;;;;18.65;12.75;;;;;;;9.79;100.00;101943.56;5027552;28;20510;-65
2022/10/31 04:57:46;;;;;;;18.52;12.45;;;;;;;9.81;100.00;101949.69;5025870;28;20025;-64
2022/10/31 05:00:13;;;;;;;19.40;13.32;;;;;;;9.80;100.00;101949.91;5025538;28;20033;-64
2022/10/31 05:02:50;;;;;;;16.55;12.57;;;;;;;9.81;100.00;101954.31;5025765;28;20037;-65
2022/10/31 05:05:17;;;;;;;19.67;13.23;;;;;;;9.77;100.00;101953.88;5028222;28;20057;-65
2022/10/31 05:07:44;;;;;;;18.85;13.13;;;;;;;9.80;100.00;101956.22;5026692;28;20037;-67
2022/10/31 05:10:16;;;;;;;18.98;13.90;;;;;;;9.83;100.00;101947.59;5027533;28;20045;-66
2022/10/31 05:12:52;;;;;;;18.42;13.18;;;;;;;9.90;100.00;101944.06;5027022;28;20473;-66
2022/10/31 05:15:19;;;;;;;20.13;14.82;;;;;;;9.87;100.00;101934.31;5028139;28;20120;-67
2022/10/31 05:17:45;;;;;;;17.17;13.30;;;;;;;9.85;100.00;101931.78;5025500;28;20028;-67
2022/10/31 05:20:12;;;;;;;19.92;12.93;;;;;;;9.78;100.00;101925.41;5041719;28;20026;-67
2022/10/31 05:22:41;;;;;;;17.08;12.73;;;;;;;9.73;100.00;101927.91;5025816;28;20053;-66
2022/10/31 05:25:06;;;;;;;19.77;13.43;;;;;;;9.71;100.00;101929.97;5026725;28;20064;-67
2022/10/31 05:27:31;;;;;;;19.58;13.93;;;;;;;9.68;100.00;101933.13;5027152;28;20408;-67
2022/10/31 05:29:57;;;;;;;21.25;14.05;;;;;;;9.66;100.00;101935.22;5026043;28;20385;-67
2022/10/31 05:32:22;;;;;;;19.65;14.15;;;;;;;9.65;100.00;101930.78;5020713;28;20037;-67
2022/10/31 05:34:47;;;;;;;18.55;13.88;;;;;;;9.64;100.00;101934.56;5027950;28;20041;-66
2022/10/31 05:37:12;;;;;;;23.38;16.02;;;;;;;9.65;100.00;101935.41;5026684;28;20052;-67
2022/10/31 05:39:38;;;;;;;22.65;15.50;;;;;;;9.67;100.00;101936.91;5021752;28;20041;-67
2022/10/31 05:42:03;;;;;;;27.17;17.08;;;;;;;9.64;100.00;101926.34;5012856;28;20022;-65
2022/10/31 05:44:28;;;;;;;30.00;17.40;;;;;;;9.59;100.00;101926.94;5026569;28;20376;-66
2022/10/31 05:46:54;;;;;;;27.50;15.55;;;;;;;9.59;100.00;101920.59;5025203;28;20029;-66
2022/10/31 05:49:19;;;;;;;25.17;16.38;;;;;;;9.61;100.00;101921.25;5026942;28;20022;-67
2022/10/31 05:51:44;;;;;;;22.23;14.45;;;;;;;9.64;100.00;101922.75;5025835;28;20103;-66
2022/10/31 05:54:09;;;;;;;19.77;14.48;;;;;;;9.61;100.00;101922.09;5026106;28;20041;-66
2022/10/31 05:56:35;;;;;;;19.20;14.43;;;;;;;9.64;100.00;101918.13;5027146;28;20491;-66
2022/10/31 05:59:00;;;;;;;17.10;12.82;;;;;;;9.63;100.00;101919.16;5025504;28;20044;-66
2022/10/31 06:01:25;;;;;;;16.70;12.77;;;;;;;9.63;100.00;101916.44;5025401;28;20438;-66
2022/10/31 06:03:51;;;;;;;19.35;14.35;;;;;;;9.66;100.00;101916.00;5024779;28;20041;-67
2022/10/31 06:06:16;;;;;;;19.45;13.90;;;;;;;9.70;100.00;101919.22;5027335;28;20037;-67
2022/10/31 06:08:41;;;;;;;19.30;13.82;;;;;;;9.67;100.00;101914.94;5024236;28;20029;-66
2022/10/31 06:11:06;;;;;;;19.05;14.10;;;;;;;9.67;100.00;101914.94;5024569;28;20038;-66
2022/10/31 06:13:32;;;;;;;20.60;13.43;;;;;;;9.65;100.00;101914.31;5026774;28;20014;-67
2022/10/31 06:15:57;;;;;;;17.15;14.15;;;;;;;9.65;100.00;101908.84;5021989;28;20368;-66
2022/10/31 06:18:22;;;;;;;21.45;14.95;;;;;;;9.69;100.00;101912.03;5025699;28;20041;-66
2022/10/31 06:20:47;;;;;;;25.38;16.10;;;;;;;9.65;100.00;101903.34;5023806;28;20123;-66
2022/10/31 06:23:13;;;;;;;24.95;15.18;;;;;;;9.63;100.00;101908.19;5023531;28;20040;-67
2022/10/31 06:25:38;;;;;;;30.05;15.93;;;;;;;9.62;100.00;101906.47;5012047;28;20182;-67
2022/10/31 06:28:04;;;;;;;47.25;18.70;;;;;;;9.62;100.00;101914.69;5014861;28;20034;-67
2022/10/31 06:30:29;;;;;;;24.27;16.40;;;;;;;9.60;100.00;101911.31;5023125;28;20029;-67
2022/10/31 06:32:54;;;;;;;27.23;18.08;;;;;;;9.61;100.00;101910.28;5024900;28;20373;-66
2022/10/31 06:35:20;;;;;;;23.75;17.35;;;;;;;9.58;100.00;101911.53;5024988;28;20068;-67
2022/10/31 06:37:53;;;;;;;35.78;18.67;;;;;;;9.63;100.00;101910.94;5031579;28;20121;-66
2022/10/31 06:40:18;;;;;;;47.47;20.20;;;;;;;9.68;100.00;101918.53;5026107;28;20041;-66
2022/10/31 06:42:44;;;;;;;25.73;18.33;;;;;;;9.71;100.00;101919.00;5024685;28;20088;-67
2022/10/31 06:45:09;;;;;;;40.13;21.02;;;;;;;9.76;100.00;101922.00;5022598;28;20049;-66
2022/10/31 06:47:34;;;;;;;43.85;22.50;;;;;;;9.82;100.00;101920.34;5023813;28;20033;-67
2022/10/31 06:49:59;;;;;;;43.58;21.98;;;;;;;9.87;100.00;101924.19;5023954;28;20099;-66
2022/10/31 06:52:25;;;;;;;62.78;21.88;;;;;;;9.88;100.00;101916.81;5024445;28;20040;-67
2022/10/31 06:54:50;;;;;;;31.38;20.60;;;;;;;9.92;100.00;101917.25;5021629;28;20065;-67
2022/10/31 06:57:15;;;;;;;33.90;21.27;;;;;;;9.97;100.00;101917.50;5021379;28;20056;-67
2022/10/31 06:59:40;;;;;;;36.33;20.20;;;;;;;10.01;100.00;101913.31;5024674;28;20022;-65
2022/10/31 07:02:09;;;;;;;40.30;21.98;;;;;;;10.07;100.00;101915.25;5022818;28;20029;-65
2022/10/31 07:04:34;;;;;;;33.55;21.20;;;;;;;10.12;100.00;101913.59;5012821;28;20022;-65
2022/10/31 07:06:59;;;;;;;26.50;19.75;;;;;;;10.20;100.00;101909.84;5020785;28;20426;-65
2022/10/31 07:09:25;;;;;;;28.52;20.58;;;;;;;10.26;100.00;101914.56;5022587;28;20025;-66
2022/10/31 07:11:52;;;;;;;29.40;20.42;;;;;;;10.31;100.00;101914.81;5023748;28;20461;-66
2022/10/31 07:14:17;;;;;;;35.20;20.42;;;;;;;10.38;100.00;101914.81;5026370;28;20048;-66
2022/10/31 07:16:43;;;;;;;29.52;19.90;;;;;;;10.45;100.00;101909.38;5027283;28;20033;-66
2022/10/31 07:19:08;;;;;;;34.60;20.67;;;;;;;10.50;100.00;101912.38;5028096;28;20041;-66
2022/10/31 07:21:33;;;;;;;31.63;21.33;;;;;;;10.55;100.00;101918.94;5029566;28;20460;-67
2022/10/31 07:23:59;;;;;;;32.45;21.55;;;;;;;10.64;100.00;101925.09;5024692;28;20029;-66
2022/10/31 07:26:24;;;;;;;32.17;22.45;;;;;;;10.72;100.00;101916.69;5033053;28;20037;-66
2022/10/31 07:28:49;;;;;;;32.40;23.17;;;;;;;10.80;100.00;101919.25;5028863;28;20033;-67
2022/10/31 07:31:14;;;;;;;32.88;23.15;;;;;;;10.86;100.00;101918.41;5023869;28;20321;-67
2022/10/31 07:33:40;;;;;;;34.67;23.80;;;;;;;10.94;100.00;101924.78;5018961;28;20045;-66
2022/10/31 07:36:05;;;;;;;36.78;24.05;;;;;;;11.00;100.00;101919.31;5019458;28;20446;-65
2022/10/31 07:38:31;;;;;;;35.30;24.80;;;;;;;11.04;100.00;101915.06;5011880;28;20109;-65
2022/10/31 07:40:56;;;;;;;34.03;24.67;;;;;;;11.09;100.00;101918.03;5009227;28;20034;-66
2022/10/31 07:43:22;;;;;;;36.42;26.33;;;;;;;11.17;100.00;101917.88;5009358;28;20025;-66
2022/10/31 07:45:54;;;;;;;33.85;25.77;;;;;;;11.27;100.00;101922.13;5008913;28;20061;-65
2022/10/31 07:48:19;;;;;;;35.08;26.95;;;;;;;11.37;100.00;101920.66;5010971;28;20133;-66
2022/10/31 07:50:45;;;;;;;38.30;27.55;;;;;;;11.46;100.00;101923.22;5028925;28;20048;-67
2022/10/31 07:53:12;;;;;;;35.63;26.95;;;;;;;11.52;100.00;101931.47;5028494;28;20100;-66
2022/10/31 07:55:38;;;;;;;32.25;26.42;;;;;;;11.57;100.00;101931.69;5019607;28;20034;-66
2022/10/31 07:58:06;;;;;;;36.08;26.77;;;;;;;11.61;100.00;101930.19;5024406;28;20032;-66
2022/10/31 08:00:32;;;;;;;;;;;;;;;11.77;100.00;101937.19;5031763;28;20037;-66
2022/10/31 08:03:03;;;;;;;38.42;27.42;;;;;;;11.81;100.00;101940.34;5019577;28;20524;-66
2022/10/31 08:05:29;;;;;;;40.80;28.60;;;;;;;11.90;100.00;101934.44;5013247;28;20465;-66
2022/10/31 08:07:54;;;;;;;39.00;29.73;;;;;;;12.06;100.00;101932.31;5018693;28;20036;-66
2022/10/31 08:10:21;;;;;;;37.63;27.95;;;;;;;12.19;100.00;101929.53;5023424;28;20396;-66
2022/10/31 08:12:47;;;;;;;41.35;31.30;;;;;;;12.38;100.00;101927.81;5022170;28;20044;-66
2022/10/31 08:15:12;;;;;;;46.15;34.28;;;;;;;12.64;100.00;101926.88;5024828;28;20379;-66
2022/10/31 08:17:38;;;;;;;45.00;32.97;;;;;;;12.85;100.00;101933.97;5016718;28;20029;-65
2022/10/31 08:20:04;;;;;;;45.22;32.70;;;;;;;13.13;100.00;101930.88;5023735;28;20542;-66
2022/10/31 08:22:30;;;;;;;47.15;34.00;;;;;;;13.31;100.00;101927.38;5022770;28;20041;-65
2022/10/31 08:24:55;;;;;;;48.50;34.60;;;;;;;13.53;100.00;101925.94;5025876;28;20107;-66
2022/10/31 08:27:20;;;;;;;50.13;34.53;;;;;;;13.90;100.00;101926.06;5022260;28;20547;-66
2022/10/31 08:29:46;;;;;;;48.15;34.63;;;;;;;14.31;100.00;101916.31;5017224;28;20036;-66
2022/10/31 08:32:11;;;;;;;42.47;32.45;;;;;;;14.66;100.00;101920.19;5026082;28;20028;-66
2022/10/31 08:34:36;;;;;;;45.90;33.00;;;;;;;14.59;100.00;101913.03;5024943;28;20021;-66
2022/10/31 08:37:01;;;;;;;55.67;35.88;;;;;;;14.37;100.00;101909.88;5017259;28;20030;-65
2022/10/31 08:39:27;;;;;;;49.20;35.20;;;;;;;14.53;100.00;101914.81;5024321;28;20043;-66
2022/10/31 08:41:52;;;;;;;61.53;38.88;;;;;;;14.91;100.00;101922.84;5018881;28;20022;-65
2022/10/31 08:44:17;;;;;;;58.15;38.35;;;;;;;15.28;100.00;101929.09;5024797;28;20053;-66
2022/10/31 08:46:42;;;;;;;54.70;36.55;;;;;;;15.28;100.00;101911.66;5019380;28;20418;-66
2022/10/31 08:49:08;;;;;;;57.90;36.97;;;;;;;14.90;100.00;101904.56;5026599;28;20506;-66
2022/10/31 08:51:33;;;;;;;61.92;37.38;;;;;;;14.60;100.00;101900.88;5026650;28;20040;-67
2022/10/31 08:53:58;;;;;;;56.03;36.22;;;;;;;14.36;100.00;101881.38;5022236;28;20075;-65
2022/10/31 08:56:24;;;;;;;59.05;37.40;;;;;;;14.13;100.00;101856.34;5024576;28;20068;-65
2022/10/31 08:58:50;;;;;;;61.15;37.47;;;;;;;13.91;100.00;101862.31;5023556;28;20026;-66
2022/10/31 09:01:16;;;;;;;69.10;39.20;;;;;;;13.83;100.00;101865.38;5022568;28;20080;-66
2022/10/31 09:03:41;;;;;;;59.17;36.65;;;;;;;13.80;100.00;101865.84;5024630;28;20064;-66
2022/10/31 09:06:08;;;;;;;65.60;39.15;;;;;;;13.79;100.00;101875.19;5023750;28;20021;-61
2022/10/31 09:08:34;;;;;;;75.43;38.77;;;;;;;13.77;100.00;101889.22;5019517;28;20113;-60
2022/10/31 09:11:00;;;;;;;79.70;39.70;;;;;;;13.80;100.00;101882.41;5020803;28;20373;-59
2022/10/31 09:13:25;;;;;;;63.58;37.95;;;;;;;13.80;100.00;101885.16;5021876;28;20045;-59
2022/10/31 09:15:51;;;;;;;59.58;36.92;;;;;;;13.83;100.00;101881.09;5019715;28;20044;-60
2022/10/31 09:18:19;;;;;;;58.58;39.22;;;;;;;13.88;100.00;101887.63;5010651;28;20091;-60
2022/10/31 09:20:46;;;;;;;56.83;38.20;;;;;;;13.93;100.00;101887.78;5016524;28;20025;-60
2022/10/31 09:23:14;;;;;;;56.28;39.05;;;;;;;13.97;100.00;101886.25;5014870;28;20076;-60
2022/10/31 09:25:40;;;;;;;59.75;38.92;;;;;;;14.08;100.00;101889.34;5026954;28;20047;-60
2022/10/31 09:28:08;;;;;;;63.08;38.97;;;;;;;14.13;100.00;101892.25;5027272;28;20022;-60
2022/10/31 09:30:35;;;;;;;59.80;38.85;;;;;;;14.11;100.00;101884.22;5019463;28;20041;-59
2022/10/31 09:33:02;;;;;;;56.53;39.15;;;;;;;14.12;100.00;101872.09;5007589;28;20029;-60
2022/10/31 09:35:28;;;;;;;62.67;41.60;;;;;;;14.19;100.00;101864.59;5012163;28;20042;-59
2022/10/31 09:38:02;;;;;;;66.38;41.38;;;;;;;14.35;100.00;101852.06;5007130;28;20079;-60
2022/10/31 09:40:40;;;;;;;67.63;40.42;;;;;;;14.45;100.00;101852.38;5006844;28;20026;-59
2022/10/31 09:43:23;;;;;;;65.05;41.55;;;;;;;14.43;100.00;101854.50;5007070;28;20091;-60
2022/10/31 09:46:04;;;;;;;54.63;36.38;;;;;;;14.44;100.00;101824.94;5006808;28;20053;-61
2022/10/31 09:48:48;;;;;;;62.35;38.00;;;;;;;14.44;100.00;101823.00;5007659;28;20033;-59
2022/10/31 09:51:20;;;;;;;63.63;39.22;;;;;;;14.46;100.00;101820.88;5007708;28;20041;-60
2022/10/31 09:53:55;;;;;;;72.43;39.15;;;;;;;14.42;100.00;101819.66;5006684;28;20129;-60
2022/10/31 09:56:22;;;;;;;69.10;39.58;;;;;;;14.32;100.00;101841.47;5006431;28;20029;-61
2022/10/31 09:58:55;;;;;;;74.73;41.23;;;;;;;14.32;100.00;101840.63;5026145;28;20018;-60
2022/10/31 10:01:41;;;;;;;78.47;42.00;;;;;;;14.32;100.00;101835.09;5012115;28;20287;-59
2022/10/31 10:04:15;;;;;;;78.80;42.80;;;;;;;14.33;100.00;101826.56;5006626;28;20025;-60
2022/10/31 10:06:44;;;;;;;71.30;40.47;;;;;;;14.32;100.00;101819.34;5006859;28;20029;-60
2022/10/31 10:09:10;;;;;;;81.68;43.00;;;;;;;14.34;100.00;101814.44;5006472;28;20030;-60
2022/10/31 10:11:50;;;;;;;75.70;41.85;;;;;;;14.39;100.00;101828.38;5006842;28;20120;-60
2022/10/31 10:14:31;;;;;;;86.22;45.25;;;;;;;14.46;100.00;101809.81;5007235;28;20045;-60
2022/10/31 10:17:13;;;;;;;80.88;44.08;;;;;;;14.58;100.00;101789.69;5005905;28;20045;-60
2022/10/31 10:20:19;;;;;;;92.80;45.90;;;;;;;14.94;100.00;101795.09;5006826;28;21280;-60
2022/10/31 10:23:15;;;;;;;83.47;42.83;;;;;;;15.48;100.00;101793.16;5006855;28;20037;-60
2022/10/31 10:25:45;;;;;;;96.28;45.40;;;;;;;15.70;100.00;101781.47;5007305;28;20068;-59
2022/10/31 10:28:25;;;;;;;95.88;46.80;;;;;;;15.76;100.00;101788.81;5006051;28;20353;-60
2022/10/31 10:31:00;;;;;;;94.95;45.35;;;;;;;15.68;100.00;101778.13;5006002;28;20038;-60
2022/10/31 10:33:34;;;;;;;92.65;45.75;;;;;;;15.56;100.00;101773.41;5006884;28;20022;-60
2022/10/31 10:36:04;;;;;;;91.50;48.38;;;;;;;15.48;100.00;101765.47;5006853;28;20034;-60
2022/10/31 10:38:52;;;;;;;90.72;44.80;;;;;;;15.49;100.00;101761.59;5009235;28;20064;-60
2022/10/31 10:41:21;;;;;;;102.38;49.40;;;;;;;15.49;100.00;101758.00;5007368;28;20034;-60
2022/10/31 10:43:49;;;;;;;99.70;49.92;;;;;;;15.45;100.00;101768.69;5007172;28;20116;-60
2022/10/31 10:49:20;;;;;;;108.75;53.38;;;;;;;15.59;100.00;101780.38;5008565;28;20053;-60
2022/10/31 10:51:49;;;;;;;111.25;53.17;;;;;;;15.64;100.00;101768.63;5027925;28;20041;-60
2022/10/31 10:54:29;;;;;;;113.57;52.90;;;;;;;15.78;100.00;101772.81;5028321;28;20584;-60
2022/10/31 10:57:07;;;;;;;110.88;55.03;;;;;;;15.86;100.00;101782.66;5010600;28;20030;-60
2022/10/31 10:59:32;;;;;;;117.95;55.80;;;;;;;16.00;100.00;101773.84;5009768;28;20022;-60
2022/10/31 11:01:59;;;;;;;111.43;55.78;;;;;;;16.19;100.00;101770.94;5010568;28;20029;-60
2022/10/31 11:04:35;;;;;;;109.35;53.90;;;;;;;16.33;100.00;101745.44;5016305;28;20091;-61
2022/10/31 11:07:09;;;;;;;114.20;56.50;;;;;;;16.35;100.00;101739.66;5030192;28;20026;-60
2022/10/31 11:09:35;;;;;;;116.75;55.60;;;;;;;16.26;100.00;101741.97;5027064;28;20022;-60
2022/10/31 11:12:08;;;;;;;119.68;55.42;;;;;;;16.23;100.00;101731.38;5020802;28;20042;-60
2022/10/31 11:14:43;;;;;;;116.13;55.75;;;;;;;16.27;100.00;101740.91;5028809;28;20033;-60
2022/10/31 11:17:22;;;;;;;122.60;57.72;;;;;;;16.39;99.71;101740.00;5028292;28;20147;-60
2022/10/31 11:19:48;;;;;;;124.45;55.78;;;;;;;16.58;98.61;101742.31;5010639;28;20037;-59